Terminal Aerodrome Forecast
Issued by NWS Louisville, KY

Home | Current Version | Previous Version | Text Only | Print | Product List | Glossary On
Versions: 1 2 3 4 5 6 7 8 9 10 11 12 13 14 15 16 17 18 19 20 21 22 23 24 25
000
FTUS43 KLMK 170528
TAFBWG
TAF
KBWG 170528Z 1706/1806 19015G23KT 6SM -SHRA OVC060 WS020/18045KT
     FM170800 20013G21KT 6SM -SHRA OVC025 WS020/19043KT
     FM171100 22012KT P6SM VCSH OVC014 WS020/21045KT
     FM171500 23010KT P6SM OVC026
     FM171800 26009KT P6SM BKN050
     FM180300 28006KT P6SM BKN021=

USA.gov is the U.S. government's official web portal to all federal, state and local government web resources and services.